createdAt,value
2022-09-17T00:01:29.684Z,22.61
2022-09-17T00:04:02.326Z,22.64
2022-09-17T00:06:30.249Z,22.76
2022-09-17T00:08:57.639Z,22.76
2022-09-17T00:11:28.106Z,22.66
2022-09-17T00:13:55.627Z,22.51
2022-09-17T00:16:31.487Z,22.39
2022-09-17T00:19:00.674Z,22.62
2022-09-17T00:21:29.009Z,22.56
2022-09-17T00:23:58.380Z,22.55
2022-09-17T00:26:26.856Z,22.49
2022-09-17T00:28:55.766Z,22.51
2022-09-17T00:31:24.511Z,22.60
2022-09-17T00:33:52.968Z,22.50
2022-09-17T00:36:21.538Z,22.46
2022-09-17T00:38:53.243Z,22.37
2022-09-17T00:41:21.595Z,22.43
2022-09-17T00:43:54.511Z,22.40
2022-09-17T00:46:44.942Z,22.47
2022-09-17T00:49:24.119Z,22.40
2022-09-17T00:52:15.898Z,22.41
2022-09-17T00:54:49.511Z,22.43
2022-09-17T00:57:17.891Z,22.51
2022-09-17T00:59:48.519Z,22.53
2022-09-17T01:02:16.354Z,22.57
2022-09-17T01:04:43.836Z,22.56
2022-09-17T01:07:47.480Z,22.64
2022-09-17T01:10:22.587Z,22.70
2022-09-17T01:13:28.645Z,22.75
2022-09-17T01:16:26.893Z,23.32
2022-09-17T01:18:58.453Z,23.44
2022-09-17T01:22:03.555Z,23.62
2022-09-17T01:24:30.883Z,23.67
2022-09-17T01:27:10.781Z,23.73
2022-09-17T01:29:59.376Z,23.74
2022-09-17T01:32:47.063Z,23.56
2022-09-17T01:35:39.271Z,23.50
2022-09-17T01:38:23.517Z,23.43
2022-09-17T01:40:55.780Z,23.23
2022-09-17T01:43:36.870Z,23.27
2022-09-17T01:46:15.749Z,23.09
2022-09-17T01:48:47.788Z,23.08
2022-09-17T01:51:19.150Z,23.05
2022-09-17T01:53:59.272Z,22.98
2022-09-17T01:56:52.391Z,22.91
2022-09-17T01:59:25.506Z,22.77
2022-09-17T02:02:00.580Z,22.54
2022-09-17T02:04:38.827Z,22.37
2022-09-17T02:07:14.678Z,22.28
2022-09-17T02:09:53.639Z,22.18
2022-09-17T02:12:29.117Z,22.09
2022-09-17T02:14:59.405Z,21.88
2022-09-17T02:17:43.077Z,22.31
2022-09-17T02:20:13.031Z,22.46
2022-09-17T02:22:45.336Z,22.51
2022-09-17T02:25:26.595Z,22.39
2022-09-17T03:21:07.691Z,22.05
2022-09-17T03:23:35.101Z,22.15
2022-09-17T03:26:02.457Z,22.10
2022-09-17T03:28:29.850Z,22.05
2022-09-17T03:30:57.287Z,22.07
2022-09-17T03:33:24.648Z,22.17
2022-09-17T03:35:52.030Z,22.24
2022-09-17T03:38:19.433Z,22.27
2022-09-17T03:40:58.246Z,22.32
2022-09-17T03:43:25.752Z,22.26
2022-09-17T03:45:53.455Z,22.30
2022-09-17T03:48:21.131Z,22.28
2022-09-17T03:50:48.608Z,22.23
2022-09-17T03:53:16.377Z,22.19
2022-09-17T03:55:44.951Z,22.27
2022-09-17T03:58:12.360Z,22.21
2022-09-17T04:00:40.384Z,22.14
2022-09-17T04:03:07.738Z,22.04
2022-09-17T04:05:35.202Z,22.11
2022-09-17T04:08:03.005Z,22.05
2022-09-17T04:10:30.337Z,22.05
2022-09-17T04:12:57.697Z,22.10
2022-09-17T04:15:25.153Z,22.13
2022-09-17T04:17:56.189Z,22.07
2022-09-17T04:20:24.964Z,22.02
2022-09-17T04:22:53.133Z,22.01
2022-09-17T04:25:20.513Z,22.00
2022-09-17T04:27:50.882Z,22.02
2022-09-17T04:30:18.726Z,22.07
2022-09-17T04:32:46.642Z,22.02
2022-09-17T04:35:14.213Z,22.05
2022-09-17T04:37:41.676Z,21.92
2022-09-17T04:40:09.825Z,21.99
2022-09-17T04:42:37.131Z,22.11
2022-09-17T04:45:07.193Z,22.19
2022-09-17T04:47:34.589Z,22.20
2022-09-17T04:50:01.884Z,22.20
2022-09-17T04:52:31.141Z,22.34
2022-09-17T04:54:58.549Z,22.38
2022-09-17T04:57:29.029Z,22.21
2022-09-17T04:59:56.282Z,21.77
2022-09-17T05:02:29.209Z,21.22
2022-09-17T05:04:57.154Z,21.58
2022-09-17T05:07:24.467Z,21.48
2022-09-17T05:09:51.814Z,21.46
2022-09-17T05:12:19.817Z,21.65
2022-09-17T05:14:47.304Z,21.55
2022-09-17T05:17:14.703Z,21.49
2022-09-17T05:19:41.992Z,21.35
2022-09-17T05:22:09.437Z,21.34
2022-09-17T05:24:39.619Z,21.34
2022-09-17T05:27:07.613Z,21.24
2022-09-17T05:29:35.113Z,21.02
2022-09-17T05:32:03.387Z,21.09
2022-09-17T05:34:30.834Z,21.07
2022-09-17T05:36:58.579Z,20.89
2022-09-17T05:39:25.943Z,21.00
2022-09-17T05:41:54.059Z,20.90
2022-09-17T05:44:22.809Z,20.75
2022-09-17T05:46:53.285Z,20.51
2022-09-17T05:49:20.743Z,20.38
2022-09-17T05:51:48.569Z,20.27
2022-09-17T05:54:17.763Z,20.37
2022-09-17T05:56:45.054Z,19.90
2022-09-17T05:59:12.921Z,19.54
2022-09-17T06:01:40.266Z,19.29
2022-09-17T06:04:07.701Z,19.13
2022-09-17T06:06:36.887Z,19.26
2022-09-17T06:09:06.887Z,19.41
2022-09-17T06:11:34.612Z,19.30
2022-09-17T06:14:02.040Z,19.15
2022-09-17T06:16:29.503Z,19.51
2022-09-17T06:18:57.112Z,19.34
2022-09-17T06:21:24.561Z,19.08
2022-09-17T06:23:52.058Z,18.82
2022-09-17T06:26:19.517Z,18.78
2022-09-17T06:28:46.880Z,18.83
2022-09-17T06:31:14.724Z,19.05
2022-09-17T06:33:42.135Z,19.08
2022-09-17T06:36:14.784Z,19.46
2022-09-17T06:38:43.095Z,19.31
2022-09-17T06:41:10.520Z,19.18
2022-09-17T06:43:37.765Z,18.96
2022-09-17T06:46:06.825Z,18.87
2022-09-17T06:48:35.441Z,18.66
2022-09-17T06:51:05.610Z,18.59
2022-09-17T06:53:33.435Z,18.83
2022-09-17T06:56:11.881Z,18.84
2022-09-17T06:58:41.831Z,18.82
2022-09-17T07:01:11.048Z,19.01
2022-09-17T07:03:39.054Z,18.91
2022-09-17T07:06:11.014Z,19.20
2022-09-17T07:08:39.670Z,19.02
2022-09-17T07:11:08.285Z,18.66
2022-09-17T07:13:35.988Z,18.76
2022-09-17T07:16:07.292Z,18.67
2022-09-17T07:18:34.845Z,18.50
2022-09-17T07:21:04.665Z,18.59
2022-09-17T07:23:36.762Z,18.78
2022-09-17T07:26:07.536Z,18.58
2022-09-17T07:28:40.246Z,18.69
2022-09-17T07:31:11.374Z,18.68
2022-09-17T07:33:43.030Z,18.69
2022-09-17T07:36:15.891Z,18.61
2022-09-17T07:38:43.284Z,18.67
2022-09-17T07:41:13.600Z,18.82
2022-09-17T07:43:44.116Z,18.86
2022-09-17T07:46:17.930Z,18.98
2022-09-17T07:48:48.645Z,19.09
2022-09-17T07:51:17.924Z,19.21
2022-09-17T07:53:45.860Z,19.27
2022-09-17T07:56:15.470Z,19.30
2022-09-17T07:58:43.015Z,19.39
2022-09-17T08:01:12.325Z,19.37
2022-09-17T08:03:40.504Z,19.25
2022-09-17T08:06:11.566Z,19.10
2022-09-17T08:08:40.073Z,19.20
2022-09-17T08:11:23.659Z,18.96
2022-09-17T08:14:00.269Z,19.07
2022-09-17T08:16:28.369Z,19.14
2022-09-17T08:18:57.980Z,19.06
2022-09-17T08:21:25.472Z,19.26
2022-09-17T08:23:53.131Z,19.24
2022-09-17T08:26:26.052Z,19.43
2022-09-17T08:28:55.831Z,19.47
2022-09-17T08:31:25.798Z,19.28
2022-09-17T08:33:53.554Z,19.38
2022-09-17T08:36:22.980Z,19.31
2022-09-17T08:39:03.049Z,19.40
2022-09-17T08:41:51.011Z,19.61
2022-09-17T08:44:40.221Z,19.46
2022-09-17T08:47:18.654Z,19.43
2022-09-17T08:49:54.262Z,19.53
2022-09-17T08:52:40.099Z,19.38
2022-09-17T08:55:13.762Z,19.44
2022-09-17T08:58:12.133Z,19.59
2022-09-17T09:00:51.034Z,19.65
2022-09-17T09:03:37.542Z,19.63
2022-09-17T09:06:10.537Z,19.53
2022-09-17T09:08:57.396Z,19.61
2022-09-17T09:11:28.522Z,19.56
2022-09-17T09:14:10.276Z,19.35
2022-09-17T09:16:42.523Z,19.40
2022-09-17T09:19:24.022Z,19.46
2022-09-17T09:21:54.439Z,19.35
2022-09-17T09:24:27.082Z,19.42
2022-09-17T09:27:20.606Z,19.58
2022-09-17T09:30:06.987Z,19.90
2022-09-17T09:32:37.119Z,20.23
2022-09-17T09:35:18.351Z,20.47
2022-09-17T09:38:17.670Z,20.71
2022-09-17T09:40:48.637Z,20.80
2022-09-17T09:43:52.717Z,20.88
2022-09-17T09:46:36.685Z,20.69
2022-09-17T09:49:16.110Z,21.06
2022-09-17T09:52:03.039Z,21.11
2022-09-17T09:54:55.016Z,20.99
2022-09-17T09:57:56.099Z,21.19
2022-09-17T10:00:27.098Z,21.08
2022-09-17T10:03:20.943Z,21.43
2022-09-17T10:05:59.422Z,21.42
2022-09-17T10:08:28.236Z,21.17
2022-09-17T10:10:57.094Z,21.09
2022-09-17T10:13:24.914Z,21.08
2022-09-17T10:15:52.599Z,21.13
2022-09-17T10:18:22.332Z,21.20
2022-09-17T10:20:55.394Z,21.34
2022-09-17T10:23:25.568Z,21.13
2022-09-17T10:25:55.837Z,20.99
2022-09-17T10:28:41.160Z,21.44
2022-09-17T10:31:11.179Z,21.34
2022-09-17T10:34:03.568Z,21.27
2022-09-17T10:36:47.768Z,21.41
2022-09-17T10:39:38.358Z,21.02
2022-09-17T10:42:11.649Z,20.94
2022-09-17T10:44:50.532Z,20.93
2022-09-17T10:47:26.092Z,21.00
2022-09-17T10:50:04.838Z,21.04
2022-09-17T10:52:37.901Z,20.97
2022-09-17T10:55:08.074Z,21.03
2022-09-17T10:58:07.572Z,21.32
2022-09-17T11:00:38.183Z,21.29
2022-09-17T11:03:17.643Z,21.34
2022-09-17T11:06:00.698Z,21.60
2022-09-17T11:09:05.258Z,21.58
2022-09-17T11:12:14.320Z,21.50
2022-09-17T11:14:54.114Z,22.01
2022-09-17T11:17:31.787Z,22.40
2022-09-17T11:20:21.771Z,21.99
2022-09-17T11:23:27.591Z,22.04
2022-09-17T11:26:03.999Z,21.74
2022-09-17T11:29:01.218Z,21.65
2022-09-17T11:31:43.983Z,21.78
2022-09-17T11:34:17.730Z,21.62
2022-09-17T11:37:23.616Z,21.64
2022-09-17T11:40:14.218Z,21.92
2022-09-17T11:42:57.001Z,21.73
2022-09-17T11:45:37.140Z,21.77
2022-09-17T11:48:12.046Z,22.36
2022-09-17T11:50:52.275Z,22.09
2022-09-17T11:53:38.261Z,22.11
2022-09-17T11:56:11.691Z,22.14
2022-09-17T11:58:42.050Z,22.02
2022-09-17T12:01:38.433Z,21.65
2022-09-17T12:04:30.706Z,21.59
2022-09-17T12:07:16.472Z,21.44
2022-09-17T12:09:45.811Z,21.31
2022-09-17T12:12:47.741Z,21.37
2022-09-17T12:15:30.218Z,21.43
2022-09-17T12:18:33.977Z,21.33
2022-09-17T12:21:05.915Z,21.44
2022-09-17T12:23:44.675Z,21.53
2022-09-17T12:26:53.362Z,21.55
2022-09-17T12:29:42.888Z,21.57
2022-09-17T12:32:21.867Z,22.00
2022-09-17T12:35:04.031Z,22.26
2022-09-17T12:37:40.830Z,22.20
2022-09-17T12:40:49.787Z,22.14
2022-09-17T12:43:39.164Z,21.87
2022-09-17T12:46:21.955Z,21.87
2022-09-17T12:49:07.904Z,22.11
2022-09-17T12:52:01.241Z,22.29
2022-09-17T12:54:31.260Z,22.35
2022-09-17T12:57:16.471Z,22.11
2022-09-17T13:00:00.290Z,22.27
2022-09-17T13:02:57.389Z,22.44
2022-09-17T13:05:36.120Z,22.22
2022-09-17T13:08:06.757Z,22.68
2022-09-17T13:10:52.511Z,22.49
2022-09-17T13:13:38.017Z,22.48
2022-09-17T13:16:19.907Z,23.06
2022-09-17T13:19:17.398Z,22.89
2022-09-17T13:21:56.911Z,23.25
2022-09-17T13:24:27.472Z,23.57
2022-09-17T13:26:56.471Z,23.31
2022-09-17T13:29:45.425Z,24.16
2022-09-17T13:32:33.111Z,24.23
2022-09-17T13:35:12.402Z,24.01
2022-09-17T13:37:58.950Z,24.27
2022-09-17T13:40:36.631Z,24.82
2022-09-17T13:43:20.179Z,24.20
2022-09-17T13:45:59.705Z,24.18
2022-09-17T13:48:34.383Z,24.06
2022-09-17T13:51:37.252Z,24.42
2022-09-17T13:54:07.746Z,24.40
2022-09-17T13:56:44.595Z,24.38
2022-09-17T13:59:28.708Z,24.16
2022-09-17T14:02:26.351Z,24.43
2022-09-17T14:05:24.991Z,24.31
2022-09-17T14:08:06.286Z,24.31
2022-09-17T14:10:42.507Z,24.59
2022-09-17T14:13:36.251Z,24.31
2022-09-17T14:16:23.532Z,24.32
2022-09-17T14:19:03.658Z,24.10
2022-09-17T14:21:33.673Z,24.13
2022-09-17T14:24:05.176Z,24.28
2022-09-17T14:26:49.339Z,24.35
2022-09-17T14:29:25.772Z,24.39
2022-09-17T14:31:53.361Z,24.38
2022-09-17T14:34:24.156Z,24.37
2022-09-17T14:36:53.194Z,24.48
2022-09-17T14:39:23.698Z,24.64
2022-09-17T14:41:54.892Z,24.74
2022-09-17T14:44:26.061Z,24.77
2022-09-17T14:47:01.930Z,24.58
2022-09-17T14:49:33.539Z,24.78
2022-09-17T14:52:02.547Z,24.90
2022-09-17T14:54:36.587Z,24.99
2022-09-17T14:57:12.614Z,24.90
2022-09-17T14:59:51.273Z,24.88
2022-09-17T15:02:44.410Z,24.96
2022-09-17T15:05:33.279Z,25.02
2022-09-17T15:08:10.028Z,24.78
2022-09-17T15:10:48.214Z,24.86
2022-09-17T15:13:49.875Z,25.21
2022-09-17T15:16:22.642Z,25.09
2022-09-17T15:18:54.748Z,25.10
2022-09-17T15:21:35.283Z,25.20
2022-09-17T15:24:23.391Z,25.41
2022-09-17T15:26:54.054Z,25.18
2022-09-17T15:29:26.427Z,25.37
2022-09-17T15:31:54.102Z,25.10
2022-09-17T15:34:22.946Z,25.21
2022-09-17T15:37:18.015Z,25.03
2022-09-17T15:39:53.247Z,25.17
2022-09-17T15:42:27.989Z,25.11
2022-09-17T15:45:20.147Z,25.01
2022-09-17T15:47:56.220Z,25.15
2022-09-17T15:50:34.790Z,25.14
2022-09-17T15:53:11.010Z,25.28
2022-09-17T15:55:44.730Z,25.23
2022-09-17T15:58:30.328Z,25.13
2022-09-17T16:01:16.072Z,25.34
2022-09-17T16:03:46.223Z,25.23
2022-09-17T16:06:19.575Z,25.13
2022-09-17T16:08:51.832Z,24.93
2022-09-17T16:11:22.314Z,24.78
2022-09-17T16:13:53.735Z,24.77
2022-09-17T16:16:36.285Z,24.74
2022-09-17T16:19:07.003Z,24.65
2022-09-17T16:21:34.399Z,24.72
2022-09-17T16:24:02.189Z,24.64
2022-09-17T16:26:31.869Z,24.63
2022-09-17T16:29:14.438Z,24.55
2022-09-17T16:31:41.963Z,24.35
2022-09-17T16:34:09.244Z,24.37
2022-09-17T16:36:36.816Z,24.37
2022-09-17T16:39:05.400Z,24.36
2022-09-17T16:41:32.846Z,24.27
2022-09-17T16:44:00.190Z,24.37
2022-09-17T16:46:27.753Z,24.20
2022-09-17T16:48:56.874Z,24.14
2022-09-17T16:51:24.289Z,24.11
2022-09-17T16:53:54.519Z,24.15
2022-09-17T16:56:22.076Z,24.17
2022-09-17T16:58:52.024Z,24.02
2022-09-17T17:01:19.326Z,23.97
2022-09-17T17:03:49.318Z,24.00
2022-09-17T17:06:18.807Z,23.73
2022-09-17T17:08:46.459Z,23.93
2022-09-17T17:11:14.484Z,23.87
2022-09-17T17:13:47.808Z,23.94
2022-09-17T17:16:19.111Z,23.97
2022-09-17T17:18:46.699Z,23.99
2022-09-17T17:21:18.180Z,23.98
2022-09-17T17:23:48.248Z,23.84
2022-09-17T17:26:16.692Z,23.85
2022-09-17T17:28:44.629Z,23.65
2022-09-17T17:31:17.245Z,23.80
2022-09-17T17:33:45.245Z,23.77
2022-09-17T17:36:12.923Z,23.75
2022-09-17T17:38:40.356Z,23.46
2022-09-17T17:41:13.368Z,23.73
2022-09-17T17:43:41.648Z,23.65
2022-09-17T17:46:10.754Z,23.66
2022-09-17T17:48:38.610Z,23.62
2022-09-17T17:51:08.069Z,23.74
2022-09-17T17:53:38.165Z,23.70
2022-09-17T17:56:07.924Z,23.61
2022-09-17T17:58:36.334Z,23.59
2022-09-17T18:01:26.897Z,23.68
2022-09-17T18:04:02.219Z,23.67
2022-09-17T18:06:30.599Z,23.71
2022-09-17T18:08:58.040Z,23.81
2022-09-17T18:11:25.990Z,23.71
2022-09-17T18:13:55.196Z,23.79
2022-09-17T18:16:23.950Z,23.79
2022-09-17T18:18:51.261Z,23.78
2022-09-17T18:21:21.350Z,23.69
2022-09-17T18:23:49.712Z,23.78
2022-09-17T18:26:25.562Z,23.73
2022-09-17T18:28:53.292Z,23.77
2022-09-17T18:31:26.820Z,23.78
2022-09-17T18:34:05.910Z,23.70
2022-09-17T18:36:35.894Z,23.63
2022-09-17T18:41:56.472Z,23.81
2022-09-17T18:44:34.821Z,23.97
2022-09-17T18:47:07.334Z,23.93
2022-09-17T18:49:36.906Z,24.10
2022-09-17T18:52:04.272Z,23.99
2022-09-17T18:54:34.375Z,24.07
2022-09-17T18:57:07.858Z,24.04
2022-09-17T18:59:35.311Z,24.01
2022-09-17T19:02:02.832Z,23.84
2022-09-17T19:04:36.066Z,23.97
2022-09-17T19:07:05.836Z,23.89
2022-09-17T19:09:33.252Z,24.01
2022-09-17T19:12:00.811Z,23.93
2022-09-17T19:14:28.168Z,23.91
2022-09-17T19:16:56.671Z,23.82
2022-09-17T19:19:26.441Z,23.91
2022-09-17T19:21:58.268Z,22.95
2022-09-17T19:24:26.568Z,20.59
2022-09-17T19:26:54.110Z,20.38
2022-09-17T19:29:22.011Z,20.40
2022-09-17T19:31:55.269Z,20.48
2022-09-17T19:34:28.742Z,20.67
2022-09-17T19:36:56.075Z,21.21
2022-09-17T19:39:23.892Z,21.21
2022-09-17T19:41:54.220Z,21.16
2022-09-17T19:44:47.807Z,21.17
2022-09-17T19:47:22.437Z,21.18
2022-09-17T19:49:57.726Z,21.13
2022-09-17T19:52:29.457Z,21.08
2022-09-17T19:55:00.094Z,21.14
2022-09-17T19:57:27.475Z,21.23
2022-09-17T19:59:57.172Z,21.20
2022-09-17T20:02:24.803Z,21.32
2022-09-17T20:04:52.120Z,21.29
2022-09-17T20:07:19.505Z,21.23
2022-09-17T20:09:46.958Z,21.18
2022-09-17T20:12:21.624Z,21.11
2022-09-17T20:14:53.129Z,21.25
2022-09-17T20:17:20.702Z,21.21
2022-09-17T20:19:48.161Z,21.28
2022-09-17T20:22:17.336Z,21.27
2022-09-17T20:24:48.865Z,21.18
2022-09-17T20:27:18.473Z,21.06
2022-09-17T20:29:46.132Z,20.81
2022-09-17T20:32:13.557Z,20.80
2022-09-17T20:34:41.328Z,20.86
2022-09-17T20:37:13.564Z,20.76
2022-09-17T20:39:41.365Z,20.91
2022-09-17T20:42:08.962Z,21.00
2022-09-17T20:44:36.348Z,20.97
2022-09-17T20:47:03.714Z,20.81
2022-09-17T20:49:31.023Z,20.99
2022-09-17T20:52:00.698Z,20.99
2022-09-17T20:54:33.777Z,21.04
2022-09-17T20:57:01.669Z,20.98
2022-09-17T20:59:40.178Z,20.92
2022-09-17T21:02:11.767Z,20.98
2022-09-17T21:04:39.368Z,20.99
2022-09-17T21:07:06.882Z,20.83
2022-09-17T21:09:34.849Z,20.89
2022-09-17T21:12:02.284Z,20.86
2022-09-17T21:14:29.708Z,20.80
2022-09-17T21:16:59.854Z,20.70
2022-09-17T21:19:28.242Z,20.77
2022-09-17T21:21:59.813Z,20.69
2022-09-17T21:24:27.462Z,20.75
2022-09-17T21:26:54.894Z,20.75
2022-09-17T21:29:22.317Z,20.76
2022-09-17T21:31:49.726Z,20.74
2022-09-17T21:34:18.653Z,20.76
2022-09-17T21:36:48.369Z,20.91
2022-09-17T21:39:17.694Z,20.83
2022-09-17T21:41:49.107Z,20.77
2022-09-17T21:44:17.439Z,20.77
2022-09-17T21:46:45.011Z,20.57
2022-09-17T21:49:13.692Z,20.64
2022-09-17T21:51:43.245Z,20.74
2022-09-17T21:54:16.165Z,20.67
2022-09-17T21:56:44.329Z,20.70
2022-09-17T21:59:14.214Z,20.62
2022-09-17T22:01:50.293Z,20.57
2022-09-17T22:04:20.394Z,20.59
2022-09-17T22:06:49.174Z,20.45
2022-09-17T22:09:22.751Z,20.33
2022-09-17T22:11:51.259Z,20.20
2022-09-17T22:14:23.959Z,20.27
2022-09-17T22:16:54.168Z,20.23
2022-09-17T22:19:26.303Z,20.06
2022-09-17T22:21:55.549Z,20.03
2022-09-17T22:24:25.196Z,20.02
2022-09-17T22:26:57.807Z,19.94
2022-09-17T22:29:27.561Z,19.88
2022-09-17T22:32:00.783Z,19.90
2022-09-17T22:34:31.023Z,19.72
2022-09-17T22:37:00.094Z,19.62
2022-09-17T22:39:29.834Z,19.75
2022-09-17T22:42:00.534Z,19.68
2022-09-17T22:44:28.723Z,19.72
2022-09-17T22:46:57.098Z,19.67
2022-09-17T22:49:24.669Z,19.67
2022-09-17T22:51:55.475Z,19.68
2022-09-17T22:54:22.914Z,19.61
2022-09-17T22:56:50.441Z,19.56
2022-09-17T22:59:18.540Z,19.55
2022-09-17T23:01:46.352Z,19.56
2022-09-17T23:04:13.905Z,19.55
2022-09-17T23:06:44.391Z,19.48
2022-09-17T23:09:19.481Z,19.40
2022-09-17T23:11:47.225Z,19.38
2022-09-17T23:14:17.646Z,19.37
2022-09-17T23:16:47.861Z,19.26
2022-09-17T23:19:17.415Z,19.18
2022-09-17T23:21:46.031Z,19.21
2022-09-17T23:24:23.464Z,19.22
2022-09-17T23:26:51.894Z,19.21
2022-09-17T23:29:19.440Z,19.15
2022-09-17T23:31:49.740Z,19.17
2022-09-17T23:34:19.139Z,19.16
2022-09-17T23:36:47.640Z,19.12
2022-09-17T23:39:15.105Z,19.08
2022-09-17T23:41:45.054Z,19.04
2022-09-17T23:44:15.602Z,19.03
2022-09-17T23:46:46.327Z,18.91
2022-09-17T23:49:14.719Z,18.96
2022-09-17T23:51:43.999Z,18.97
2022-09-17T23:54:11.464Z,18.88
2022-09-17T23:56:38.971Z,18.86
2022-09-17T23:59:07.547Z,18.86
